Time;durP1;ratioP1;P1;durP2;ratioP2;P2;SDS_P1;SDS_P2;PMS_P1;PMS_P2;Temp;Humidity;BMP_temperature;BMP_pressure;BME280_temperature;BME280_humidity;BME280_pressure;Samples;Min_cycle;Max_cycle;Signal;HPM_P1;HPM_P2
2023/10/07 00:02:13;;;;;;;;;;;18.10;75.80;;;;;;5093440;28;20110;-71
2023/10/07 00:04:44;;;;;;;;;;;18.00;75.80;;;;;;5092153;28;19944;-71
2023/10/07 00:07:10;;;;;;;;;;;18.00;76.10;;;;;;5093450;28;19950;-71
2023/10/07 00:09:36;;;;;;;;;;;18.00;76.20;;;;;;5093574;28;19991;-71
2023/10/07 00:12:02;;;;;;;;;;;18.00;76.20;;;;;;5093260;28;19912;-72
2023/10/07 00:14:29;;;;;;;;;;;17.90;76.30;;;;;;5091864;28;19904;-71
2023/10/07 00:16:55;;;;;;;;;;;17.90;76.50;;;;;;5093253;28;19916;-71
2023/10/07 00:19:21;;;;;;;;;;;17.90;76.50;;;;;;5092943;28;19916;-72
2023/10/07 00:21:59;;;;;;;;;;;17.90;76.70;;;;;;5093165;28;19911;-72
2023/10/07 00:24:26;;;;;;;;;;;17.90;76.90;;;;;;5093405;28;19904;-71
2023/10/07 00:26:52;;;;;;;;;;;17.80;76.70;;;;;;5093339;28;19912;-70
2023/10/07 00:29:21;;;;;;;;;;;17.90;76.70;;;;;;5093151;28;19911;-72
2023/10/07 00:31:50;;;;;;;;;;;17.80;76.80;;;;;;5093431;28;19911;-71
2023/10/07 00:34:16;;;;;;;;;;;17.80;77.00;;;;;;5093146;28;19904;-71
2023/10/07 00:36:42;;;;;;;;;;;17.80;76.90;;;;;;5093066;28;20332;-71
2023/10/07 00:39:09;;;;;;;;;;;17.70;76.80;;;;;;5092930;28;19919;-72
2023/10/07 00:41:50;;;;;;;;;;;17.70;77.00;;;;;;5092681;28;19908;-71
2023/10/07 00:44:22;;;;;;;;;;;17.70;77.20;;;;;;5092920;28;20364;-72
2023/10/07 00:46:49;;;;;;;;;;;17.60;77.30;;;;;;5091678;28;19911;-72
2023/10/07 00:49:22;;;;;;;;;;;17.60;77.30;;;;;;5093218;28;19938;-72
2023/10/07 00:51:49;;;;;;;;;;;17.50;77.40;;;;;;5093171;28;19908;-71
2023/10/07 00:54:30;;;;;;;;;;;17.50;77.60;;;;;;5092893;28;20007;-70
2023/10/07 00:57:10;;;;;;;;;;;17.50;77.60;;;;;;5092927;28;19904;-71
2023/10/07 00:59:36;;;;;;;;;;;17.40;77.20;;;;;;5090064;28;19916;-72
2023/10/07 01:02:06;;;;;;;;;;;17.40;77.30;;;;;;5090070;28;19915;-71
2023/10/07 01:04:40;;;;;;;;;;;17.40;77.10;;;;;;5090902;28;19911;-71
2023/10/07 01:07:06;;;;;;;;;;;17.40;77.00;;;;;;5092314;28;19904;-72
2023/10/07 01:09:32;;;;;;;;;;;17.40;77.30;;;;;;5091631;28;20339;-71
2023/10/07 01:11:58;;;;;;;;;;;17.30;77.50;;;;;;5095611;28;20011;-72
2023/10/07 01:14:33;;;;;;;;;;;17.30;77.70;;;;;;5096466;28;19904;-71
2023/10/07 01:17:00;;;;;;;;;;;17.30;77.70;;;;;;5095964;28;19973;-71
2023/10/07 01:19:30;;;;;;;;;;;17.30;77.90;;;;;;5096204;28;19964;-71
2023/10/07 01:21:59;;;;;;;;;;;17.30;78.20;;;;;;5095903;28;19904;-70
2023/10/07 01:24:59;;;;;;;;;;;17.20;78.10;;;;;;5096253;28;19908;-71
2023/10/07 01:29:59;;;;;;;;;;;17.20;78.20;;;;;;5095928;28;19911;-71
2023/10/07 01:32:31;;;;;;;;;;;17.20;78.00;;;;;;5095484;28;20275;-71
2023/10/07 01:34:57;;;;;;;;;;;17.20;77.90;;;;;;5095056;28;20017;-72
2023/10/07 01:37:24;;;;;;;;;;;17.20;78.20;;;;;;5095566;28;20302;-71
2023/10/07 01:39:52;;;;;;;;;;;17.20;78.40;;;;;;5095733;28;19919;-70
2023/10/07 01:42:43;;;;;;;;;;;17.10;78.30;;;;;;5095828;28;20057;-71
2023/10/07 01:45:19;;;;;;;;;;;17.10;78.30;;;;;;5095991;28;19908;-71
2023/10/07 01:47:47;;;;;;;;;;;17.10;78.40;;;;;;5096039;28;19921;-71
2023/10/07 01:50:13;;;;;;;;;;;17.00;78.50;;;;;;5095921;28;19904;-71
2023/10/07 01:52:38;;;;;;;;;;;17.10;78.80;;;;;;5095934;28;19927;-72
2023/10/07 01:55:08;;;;;;;;;;;17.00;78.90;;;;;;5096027;28;20370;-71
2023/10/07 01:57:34;;;;;;;;;;;17.00;78.90;;;;;;5096123;28;20283;-71
2023/10/07 02:00:04;;;;;;;;;;;17.00;79.00;;;;;;5095764;28;19912;-71
2023/10/07 02:02:30;;;;;;;;;;;17.00;79.00;;;;;;5095981;28;19914;-71
2023/10/07 02:04:56;;;;;;;;;;;16.90;78.90;;;;;;5095839;28;19939;-71
2023/10/07 02:07:22;;;;;;;;;;;16.90;79.20;;;;;;5096018;28;20052;-72
2023/10/07 02:09:48;;;;;;;;;;;16.80;79.10;;;;;;5095711;28;19904;-72
2023/10/07 02:12:18;;;;;;;;;;;16.90;79.20;;;;;;5095767;28;20011;-71
2023/10/07 02:14:44;;;;;;;;;;;16.80;79.20;;;;;;5095602;28;19911;-71
2023/10/07 02:17:11;;;;;;;;;;;16.80;79.20;;;;;;5095330;28;19908;-71
2023/10/07 02:19:40;;;;;;;;;;;16.70;79.20;;;;;;5095545;28;19912;-71
2023/10/07 02:22:13;;;;;;;;;;;16.70;79.50;;;;;;5095149;28;19907;-70
2023/10/07 02:24:41;;;;;;;;;;;16.70;79.50;;;;;;5095336;28;20361;-71
2023/10/07 02:27:19;;;;;;;;;;;16.70;79.70;;;;;;5094988;28;19904;-71
2023/10/07 02:29:51;;;;;;;;;;;16.60;79.70;;;;;;5094975;28;19911;-71
2023/10/07 02:32:19;;;;;;;;;;;16.60;79.60;;;;;;5095163;28;20275;-71
2023/10/07 02:34:51;;;;;;;;;;;16.60;79.60;;;;;;5094900;28;19911;-70
2023/10/07 02:37:21;;;;;;;;;;;16.60;79.60;;;;;;5095102;28;20004;-71
2023/10/07 02:39:50;;;;;;;;;;;16.60;79.50;;;;;;5095084;28;19994;-70
2023/10/07 02:42:22;;;;;;;;;;;16.60;79.60;;;;;;5095039;28;19928;-71
2023/10/07 02:44:51;;;;;;;;;;;16.60;79.70;;;;;;5094880;28;19910;-71
2023/10/07 02:47:17;;;;;;;;;;;16.60;79.60;;;;;;5094533;28;19916;-71
2023/10/07 02:49:49;;;;;;;;;;;16.60;79.70;;;;;;5095115;28;19927;-71
2023/10/07 02:52:16;;;;;;;;;;;16.50;79.90;;;;;;5094894;28;20338;-71
2023/10/07 02:54:43;;;;;;;;;;;16.50;79.90;;;;;;5094868;28;20371;-71
2023/10/07 02:57:09;;;;;;;;;;;16.50;80.00;;;;;;5094867;28;19913;-71
2023/10/07 02:59:36;;;;;;;;;;;16.50;80.00;;;;;;5094882;28;20271;-71
2023/10/07 03:02:12;;;;;;;;;;;16.50;80.00;;;;;;5094565;28;19904;-71
2023/10/07 03:04:46;;;;;;;;;;;16.50;80.00;;;;;;5094698;28;20048;-71
2023/10/07 03:07:16;;;;;;;;;;;16.40;80.00;;;;;;5094700;28;20386;-72
2023/10/07 03:09:52;;;;;;;;;;;16.40;80.00;;;;;;5094571;28;19904;-71
2023/10/07 03:12:27;;;;;;;;;;;16.40;80.00;;;;;;5094164;28;19924;-72
2023/10/07 03:14:55;;;;;;;;;;;16.40;80.00;;;;;;5094042;28;19903;-72
2023/10/07 03:17:21;;;;;;;;;;;16.40;79.90;;;;;;5094716;28;20248;-71
2023/10/07 03:19:56;;;;;;;;;;;16.40;79.80;;;;;;5094429;28;19908;-71
2023/10/07 03:22:28;;;;;;;;;;;16.40;79.80;;;;;;5094231;28;19904;-70
2023/10/07 03:25:00;;;;;;;;;;;16.40;79.80;;;;;;5094322;28;20274;-71
2023/10/07 03:27:26;;;;;;;;;;;16.40;79.90;;;;;;5094233;28;19905;-70
2023/10/07 03:30:12;;;;;;;;;;;16.40;80.10;;;;;;5094334;28;19927;-71
2023/10/07 03:32:58;;;;;;;;;;;16.30;80.20;;;;;;5093835;28;19907;-71
2023/10/07 03:35:35;;;;;;;;;;;16.30;80.40;;;;;;5093647;28;19908;-72
2023/10/07 03:38:04;;;;;;;;;;;16.20;80.60;;;;;;5093774;28;19912;-72
2023/10/07 03:40:35;;;;;;;;;;;16.20;80.40;;;;;;5093830;28;19905;-71
2023/10/07 03:43:00;;;;;;;;;;;16.20;80.70;;;;;;5093928;28;19908;-71
2023/10/07 03:45:29;;;;;;;;;;;16.10;80.80;;;;;;5093831;28;20424;-71
2023/10/07 03:47:54;;;;;;;;;;;16.10;81.00;;;;;;5093301;28;20011;-72
2023/10/07 03:50:34;;;;;;;;;;;16.10;81.00;;;;;;5093485;28;20003;-71
2023/10/07 03:53:03;;;;;;;;;;;16.10;81.00;;;;;;5093373;28;20007;-71
2023/10/07 03:55:29;;;;;;;;;;;16.10;81.40;;;;;;5076311;28;19943;-71
2023/10/07 03:57:55;;;;;;;;;;;16.10;81.40;;;;;;5073436;28;20329;-71
2023/10/07 04:00:21;;;;;;;;;;;16.10;81.60;;;;;;5072925;28;20360;-71
2023/10/07 04:02:47;;;;;;;;;;;16.10;81.50;;;;;;5073204;28;19912;-71
2023/10/07 04:05:12;;;;;;;;;;;16.10;81.70;;;;;;5073226;28;19904;-71
2023/10/07 04:07:39;;;;;;;;;;;16.10;82.20;;;;;;5073307;28;19904;-70
2023/10/07 04:10:21;;;;;;;;;;;16.10;81.70;;;;;;5073105;28;20002;-71
2023/10/07 04:12:47;;;;;;;;;;;16.10;81.70;;;;;;5073074;28;19964;-71
2023/10/07 04:15:17;;;;;;;;;;;16.10;81.50;;;;;;5072993;28;20454;-72
2023/10/07 04:17:44;;;;;;;;;;;16.10;81.40;;;;;;5073076;28;19908;-71
2023/10/07 04:20:57;;;;;;;;;;;16.10;81.60;;;;;;5073174;28;19913;-71
2023/10/07 04:23:02;;;;;;;;;;;16.00;81.50;;;;;;5067431;28;19957;-71
2023/10/07 04:25:28;;;;;;;;;;;16.00;81.50;;;;;;5073174;28;19995;-71
2023/10/07 04:27:53;;;;;;;;;;;16.00;81.90;;;;;;5073029;28;19993;-71
2023/10/07 04:30:23;;;;;;;;;;;16.00;82.00;;;;;;5073175;28;20046;-70
2023/10/07 04:33:00;;;;;;;;;;;15.90;82.10;;;;;;5075521;28;19909;-71
2023/10/07 04:35:26;;;;;;;;;;;15.90;82.10;;;;;;5072594;28;19904;-71
2023/10/07 04:37:59;;;;;;;;;;;15.90;82.20;;;;;;5072791;28;19920;-71
2023/10/07 04:43:25;;;;;;;;;;;15.90;82.20;;;;;;5072797;28;19904;-72
2023/10/07 04:45:54;;;;;;;;;;;15.80;82.20;;;;;;5073846;28;20021;-72
2023/10/07 04:48:40;;;;;;;;;;;15.90;82.20;;;;;;5076528;28;19931;-71
2023/10/07 04:51:12;;;;;;;;;;;15.80;82.20;;;;;;5075708;28;19930;-72
2023/10/07 04:53:39;;;;;;;;;;;15.80;82.60;;;;;;5076778;28;19904;-72
2023/10/07 04:56:08;;;;;;;;;;;15.80;82.70;;;;;;5076785;28;19905;-71
2023/10/07 04:58:34;;;;;;;;;;;15.70;82.90;;;;;;5076916;28;19924;-71
2023/10/07 05:01:06;;;;;;;;;;;15.70;83.00;;;;;;5075467;28;19908;-71
2023/10/07 05:03:32;;;;;;;;;;;15.70;83.30;;;;;;5076677;28;20360;-72
2023/10/07 05:05:58;;;;;;;;;;;15.70;83.30;;;;;;5076718;28;19908;-72
2023/10/07 05:08:27;;;;;;;;;;;15.70;83.30;;;;;;5076378;28;19904;-72
2023/10/07 05:10:53;;;;;;;;;;;15.80;83.40;;;;;;5076738;28;20018;-71
2023/10/07 05:13:20;;;;;;;;;;;15.80;83.30;;;;;;5076395;28;19905;-72
2023/10/07 05:15:45;;;;;;;;;;;15.70;83.50;;;;;;5076486;28;19905;-72
2023/10/07 05:18:12;;;;;;;;;;;15.70;83.30;;;;;;5076063;28;19913;-72
2023/10/07 05:20:39;;;;;;;;;;;15.70;83.40;;;;;;5074828;28;20371;-72
2023/10/07 05:23:06;;;;;;;;;;;15.80;83.20;;;;;;5076084;28;19951;-72
2023/10/07 05:25:35;;;;;;;;;;;15.80;83.20;;;;;;5075152;28;20257;-72
2023/10/07 05:28:10;;;;;;;;;;;15.80;83.40;;;;;;5076144;28;19904;-72
2023/10/07 05:30:50;;;;;;;;;;;15.80;84.20;;;;;;5075878;28;19905;-71
2023/10/07 05:33:20;;;;;;;;;;;15.80;84.00;;;;;;5076182;28;19957;-72
2023/10/07 05:35:49;;;;;;;;;;;15.80;83.80;;;;;;5076383;28;19904;-71
2023/10/07 05:38:18;;;;;;;;;;;15.80;83.60;;;;;;5074672;28;20291;-72
2023/10/07 05:40:43;;;;;;;;;;;15.80;83.20;;;;;;5075978;28;19904;-72
2023/10/07 05:43:09;;;;;;;;;;;15.80;83.10;;;;;;5075931;28;19913;-72
2023/10/07 05:45:35;;;;;;;;;;;15.80;83.10;;;;;;5076409;28;19905;-73
2023/10/07 05:48:01;;;;;;;;;;;15.80;83.10;;;;;;5084484;28;20291;-71
2023/10/07 05:50:27;;;;;;;;;;;15.70;83.10;;;;;;5085636;28;20264;-72
2023/10/07 05:52:53;;;;;;;;;;;15.70;83.20;;;;;;5083736;28;20312;-72
2023/10/07 05:55:18;;;;;;;;;;;15.60;83.20;;;;;;5085688;28;19998;-72
2023/10/07 05:57:44;;;;;;;;;;;15.60;83.20;;;;;;5077624;28;19915;-72
2023/10/07 06:00:10;;;;;;;;;;;15.60;83.20;;;;;;5075390;28;19919;-69
2023/10/07 06:02:40;;;;;;;;;;;15.60;83.20;;;;;;5076691;28;19904;-72
2023/10/07 06:05:06;;;;;;;;;;;15.60;83.20;;;;;;5075481;28;20343;-71
2023/10/07 06:07:32;;;;;;;;;;;15.60;83.10;;;;;;5075562;28;19954;-71
2023/10/07 06:09:59;;;;;;;;;;;15.60;83.00;;;;;;5075223;28;19939;-73
2023/10/07 06:12:24;;;;;;;;;;;15.60;83.10;;;;;;5074113;28;20352;-71
2023/10/07 06:14:50;;;;;;;;;;;15.60;83.40;;;;;;5075126;28;19940;-72
2023/10/07 06:17:16;;;;;;;;;;;15.60;83.80;;;;;;5075320;28;19977;-72
2023/10/07 06:19:43;;;;;;;;;;;15.60;84.00;;;;;;5083660;28;20267;-72
2023/10/07 06:22:12;;;;;;;;;;;15.60;84.00;;;;;;5095397;28;20276;-72
2023/10/07 06:24:41;;;;;;;;;;;15.70;83.80;;;;;;5095406;28;19999;-72
2023/10/07 06:27:11;;;;;;;;;;;15.70;83.70;;;;;;5095159;28;19927;-72
2023/10/07 06:29:41;;;;;;;;;;;15.70;83.90;;;;;;5095399;28;19956;-71
2023/10/07 06:32:22;;;;;;;;;;;15.80;83.90;;;;;;5095192;28;20345;-71
2023/10/07 06:34:48;;;;;;;;;;;15.80;83.90;;;;;;5095383;28;19949;-71
2023/10/07 06:37:14;;;;;;;;;;;15.90;83.50;;;;;;5095122;28;19911;-72
2023/10/07 06:39:40;;;;;;;;;;;15.90;82.90;;;;;;5094930;28;19916;-72
2023/10/07 06:42:06;;;;;;;;;;;16.00;82.90;;;;;;5094812;28;19911;-71
2023/10/07 06:44:32;;;;;;;;;;;16.00;82.80;;;;;;5094863;28;20275;-72
2023/10/07 06:47:02;;;;;;;;;;;16.10;82.50;;;;;;5093676;28;19904;-73
2023/10/07 06:49:28;;;;;;;;;;;16.10;82.80;;;;;;5094518;28;19916;-72
2023/10/07 06:51:54;;;;;;;;;;;16.10;83.30;;;;;;5094633;28;20368;-72
2023/10/07 06:54:20;;;;;;;;;;;16.20;83.60;;;;;;5094405;28;19904;-73
2023/10/07 06:56:46;;;;;;;;;;;16.30;83.90;;;;;;5093654;28;19987;-72
2023/10/07 06:59:13;;;;;;;;;;;16.30;83.70;;;;;;5094153;28;19912;-71
2023/10/07 07:04:11;;;;;;;;;;;16.40;83.90;;;;;;5094457;28;19904;-72
2023/10/07 07:06:43;;;;;;;;;;;16.50;84.50;;;;;;5094385;28;19916;-72
2023/10/07 07:09:41;;;;;;;;;;;16.60;84.00;;;;;;5093363;28;20313;-72
2023/10/07 07:11:58;;;;;;;;;;;16.60;84.10;;;;;;5094105;28;19904;-73
2023/10/07 07:14:28;;;;;;;;;;;16.70;84.10;;;;;;5093724;28;19943;-73
2023/10/07 07:16:56;;;;;;;;;;;16.70;84.20;;;;;;5094218;28;20348;-72
2023/10/07 07:19:23;;;;;;;;;;;16.80;83.90;;;;;;5093846;28;20002;-72
2023/10/07 07:21:49;;;;;;;;;;;16.80;83.90;;;;;;5093985;28;19904;-73
2023/10/07 07:24:15;;;;;;;;;;;16.90;83.80;;;;;;5094072;28;20287;-72
2023/10/07 07:26:50;;;;;;;;;;;17.00;83.60;;;;;;5092788;28;19911;-73
2023/10/07 07:29:17;;;;;;;;;;;17.00;83.40;;;;;;5093969;28;19904;-72
2023/10/07 07:31:46;;;;;;;;;;;17.10;83.20;;;;;;5094309;28;19962;-72
2023/10/07 07:34:27;;;;;;;;;;;17.20;83.30;;;;;;5093902;28;19904;-72
2023/10/07 07:37:06;;;;;;;;;;;17.20;83.20;;;;;;5092307;28;19904;-73
2023/10/07 07:39:31;;;;;;;;;;;17.30;83.50;;;;;;5092264;28;19912;-72
2023/10/07 07:42:15;;;;;;;;;;;17.30;83.20;;;;;;5093109;28;19904;-72
2023/10/07 07:44:55;;;;;;;;;;;17.40;83.30;;;;;;5092791;28;20370;-72
2023/10/07 07:47:21;;;;;;;;;;;17.50;82.80;;;;;;5092689;28;19958;-72
2023/10/07 07:49:47;;;;;;;;;;;17.50;82.50;;;;;;5092825;28;19943;-72
2023/10/07 07:52:15;;;;;;;;;;;17.60;82.50;;;;;;5093863;28;19904;-72
2023/10/07 07:54:41;;;;;;;;;;;17.70;82.60;;;;;;5093727;28;19911;-72
2023/10/07 07:57:12;;;;;;;;;;;17.70;82.30;;;;;;5093756;28;19904;-72
2023/10/07 07:59:38;;;;;;;;;;;17.80;81.70;;;;;;5093772;28;19965;-72
2023/10/07 08:02:13;;;;;;;;;;;17.90;81.20;;;;;;5092600;28;19904;-72
2023/10/07 08:04:42;;;;;;;;;;;18.00;80.90;;;;;;5094082;28;19904;-72
2023/10/07 08:07:27;;;;;;;;;;;18.00;80.30;;;;;;5093691;28;20267;-72
2023/10/07 08:09:55;;;;;;;;;;;18.10;79.90;;;;;;5093588;28;19911;-72
2023/10/07 08:12:28;;;;;;;;;;;18.20;79.40;;;;;;5093602;28;20367;-72
2023/10/07 08:14:58;;;;;;;;;;;18.20;79.10;;;;;;5092153;28;19904;-72
2023/10/07 08:17:27;;;;;;;;;;;18.30;78.90;;;;;;5092241;28;20267;-72
2023/10/07 08:19:57;;;;;;;;;;;18.30;79.10;;;;;;5093254;28;19916;-72
2023/10/07 08:22:23;;;;;;;;;;;18.40;79.10;;;;;;5093537;28;19915;-72
2023/10/07 08:24:49;;;;;;;;;;;18.50;78.70;;;;;;5093818;28;20263;-72
2023/10/07 08:30:06;;;;;;;;;;;18.60;77.90;;;;;;5093273;28;20405;-72
2023/10/07 08:32:35;;;;;;;;;;;18.70;78.40;;;;;;5093279;28;19995;-72
2023/10/07 08:35:03;;;;;;;;;;;18.80;78.40;;;;;;5093173;28;20412;-72
2023/10/07 08:37:32;;;;;;;;;;;18.80;77.90;;;;;;5093205;28;19904;-72
2023/10/07 08:40:13;;;;;;;;;;;18.90;77.40;;;;;;5093153;28;20402;-72
2023/10/07 08:42:44;;;;;;;;;;;19.00;76.90;;;;;;5093149;28;19947;-72
2023/10/07 08:45:23;;;;;;;;;;;19.00;76.60;;;;;;5093638;28;19908;-72
2023/10/07 08:47:51;;;;;;;;;;;19.00;76.70;;;;;;5093249;28;19977;-72
2023/10/07 08:50:23;;;;;;;;;;;19.00;76.70;;;;;;5091997;28;19943;-72
2023/10/07 08:53:04;;;;;;;;;;;19.10;76.80;;;;;;5093186;28;19948;-71
2023/10/07 08:55:32;;;;;;;;;;;19.10;76.40;;;;;;5093215;28;19908;-72
2023/10/07 08:58:02;;;;;;;;;;;19.20;76.20;;;;;;5092851;28;19954;-72
2023/10/07 09:00:33;;;;;;;;;;;19.30;75.90;;;;;;5091958;28;19908;-72
2023/10/07 09:02:59;;;;;;;;;;;19.40;75.90;;;;;;5091962;28;19943;-72
2023/10/07 09:05:27;;;;;;;;;;;19.40;75.40;;;;;;5093404;28;20253;-72
2023/10/07 09:07:56;;;;;;;;;;;19.50;74.90;;;;;;5093201;28;19991;-72
2023/10/07 09:10:28;;;;;;;;;;;19.50;74.30;;;;;;5093529;28;19904;-72
2023/10/07 09:12:57;;;;;;;;;;;19.60;74.50;;;;;;5093009;28;19915;-72
2023/10/07 09:15:26;;;;;;;;;;;19.70;75.00;;;;;;5092952;28;19904;-72
2023/10/07 09:18:04;;;;;;;;;;;19.70;74.80;;;;;;5092853;28;19999;-72
2023/10/07 09:20:31;;;;;;;;;;;19.80;73.90;;;;;;5092781;28;19904;-72
2023/10/07 09:23:00;;;;;;;;;;;19.80;73.60;;;;;;5091958;28;19927;-72
2023/10/07 09:25:31;;;;;;;;;;;19.90;73.70;;;;;;5092966;28;19958;-72
2023/10/07 09:27:58;;;;;;;;;;;20.00;74.30;;;;;;5092929;28;19996;-72
2023/10/07 09:33:17;;;;;;;;;;;20.20;73.90;;;;;;5095827;28;19904;-72
2023/10/07 09:35:47;;;;;;;;;;;20.30;74.10;;;;;;5096653;28;19904;-72
2023/10/07 09:38:14;;;;;;;;;;;20.30;73.70;;;;;;5096463;28;19940;-72
2023/10/07 09:43:27;;;;;;;;;;;20.40;72.70;;;;;;5096335;28;19925;-72
2023/10/07 09:45:53;;;;;;;;;;;20.50;73.00;;;;;;5096357;28;19900;-72
2023/10/07 09:48:23;;;;;;;;;;;20.50;72.60;;;;;;5096147;28;20256;-72
2023/10/07 09:50:55;;;;;;;;;;;20.60;72.50;;;;;;5096360;28;20352;-72
2023/10/07 09:53:21;;;;;;;;;;;20.70;72.90;;;;;;5096285;28;19904;-72
2023/10/07 09:55:50;;;;;;;;;;;20.70;72.70;;;;;;5096029;28;19926;-72
2023/10/07 09:58:17;;;;;;;;;;;20.80;72.50;;;;;;5096267;28;20011;-72
2023/10/07 10:01:02;;;;;;;;;;;20.90;72.90;;;;;;5096229;28;19918;-72
2023/10/07 10:03:42;;;;;;;;;;;20.90;72.50;;;;;;5095893;28;20322;-72
2023/10/07 10:06:33;;;;;;;;;;;21.00;71.10;;;;;;5095857;28;19904;-72
2023/10/07 10:08:59;;;;;;;;;;;21.00;71.00;;;;;;5094667;28;19911;-72
2023/10/07 10:11:44;;;;;;;;;;;21.10;70.70;;;;;;5096039;28;19958;-72
2023/10/07 10:16:44;;;;;;;;;;;21.10;71.50;;;;;;5095667;28;19904;-72
2023/10/07 10:19:22;;;;;;;;;;;21.10;70.00;;;;;;5095702;28;19944;-72
2023/10/07 10:21:48;;;;;;;;;;;21.20;69.10;;;;;;5095770;28;19911;-72
2023/10/07 10:24:15;;;;;;;;;;;21.20;69.00;;;;;;5095633;28;20412;-72
2023/10/07 10:26:41;;;;;;;;;;;21.30;70.20;;;;;;5095574;28;19947;-72
2023/10/07 10:29:15;;;;;;;;;;;21.30;69.30;;;;;;5094394;28;19993;-72
2023/10/07 10:31:50;;;;;;;;;;;21.30;69.30;;;;;;5095642;28;19957;-72
2023/10/07 10:34:16;;;;;;;;;;;21.40;69.10;;;;;;5095552;28;19940;-71
2023/10/07 10:36:48;;;;;;;;;;;21.40;68.90;;;;;;5095432;28;19943;-72
2023/10/07 10:39:31;;;;;;;;;;;21.50;68.60;;;;;;5095074;28;19912;-72
2023/10/07 10:42:00;;;;;;;;;;;21.50;67.10;;;;;;5095416;28;19904;-72
2023/10/07 10:44:26;;;;;;;;;;;21.60;66.80;;;;;;5094267;28;19904;-71
2023/10/07 10:46:51;;;;;;;;;;;21.60;66.90;;;;;;5095316;28;19999;-72
2023/10/07 10:49:18;;;;;;;;;;;21.80;69.50;;;;;;5094967;28;19931;-72
2023/10/07 10:51:45;;;;;;;;;;;21.80;67.00;;;;;;5094831;28;19944;-71
2023/10/07 10:54:17;;;;;;;;;;;21.80;66.50;;;;;;5093778;28;20334;-72
2023/10/07 10:56:49;;;;;;;;;;;21.90;67.60;;;;;;5095149;28;19907;-72
2023/10/07 10:59:15;;;;;;;;;;;21.90;67.40;;;;;;5093675;28;19916;-72
2023/10/07 11:01:44;;;;;;;;;;;22.00;67.20;;;;;;5095000;28;19986;-72
2023/10/07 11:04:12;;;;;;;;;;;22.00;66.80;;;;;;5094945;28;19912;-72
2023/10/07 11:06:39;;;;;;;;;;;22.10;66.80;;;;;;5094724;28;19904;-72
2023/10/07 11:09:04;;;;;;;;;;;22.10;66.20;;;;;;5094814;28;19912;-72
2023/10/07 11:11:30;;;;;;;;;;;22.20;66.00;;;;;;5095322;28;20373;-72
2023/10/07 11:13:56;;;;;;;;;;;22.20;66.00;;;;;;5094590;28;19939;-73
2023/10/07 11:16:22;;;;;;;;;;;22.30;66.50;;;;;;5094823;28;19911;-72
2023/10/07 11:18:49;;;;;;;;;;;22.30;66.30;;;;;;5094038;28;19912;-73
2023/10/07 11:21:17;;;;;;;;;;;22.30;66.50;;;;;;5093090;28;19903;-73
2023/10/07 11:23:50;;;;;;;;;;;22.40;66.00;;;;;;5094394;28;19903;-72
2023/10/07 11:26:19;;;;;;;;;;;22.40;65.60;;;;;;5094219;28;19911;-73
2023/10/07 11:28:48;;;;;;;;;;;22.40;65.40;;;;;;5094402;28;19911;-73
2023/10/07 11:31:19;;;;;;;;;;;22.50;65.90;;;;;;5094247;28;19904;-72
2023/10/07 11:33:51;;;;;;;;;;;22.50;65.60;;;;;;5094353;28;19950;-72
2023/10/07 11:36:16;;;;;;;;;;;22.60;65.40;;;;;;5094148;28;19904;-73
2023/10/07 11:38:42;;;;;;;;;;;22.60;65.90;;;;;;5094024;28;19912;-73
2023/10/07 11:41:10;;;;;;;;;;;22.60;66.40;;;;;;5093966;28;19911;-72
2023/10/07 11:43:47;;;;;;;;;;;22.70;65.60;;;;;;5094250;28;19999;-72
2023/10/07 11:46:13;;;;;;;;;;;22.70;65.20;;;;;;5094069;28;20275;-73
2023/10/07 11:48:44;;;;;;;;;;;22.70;65.80;;;;;;5093843;28;20397;-72
2023/10/07 11:51:11;;;;;;;;;;;22.70;65.70;;;;;;5093840;28;20282;-72
2023/10/07 11:53:39;;;;;;;;;;;22.80;65.30;;;;;;5094001;28;19954;-72
2023/10/07 11:56:11;;;;;;;;;;;22.80;65.60;;;;;;5093665;28;19958;-72
2023/10/07 11:58:37;;;;;;;;;;;22.90;65.30;;;;;;5093463;28;20003;-72
2023/10/07 12:01:03;;;;;;;;;;;22.90;63.70;;;;;;5092764;28;20356;-73
2023/10/07 12:03:30;;;;;;;;;;;23.00;64.60;;;;;;5093795;28;20356;-72
2023/10/07 12:05:58;;;;;;;;;;;23.00;65.70;;;;;;5093287;28;20267;-72
2023/10/07 12:08:23;;;;;;;;;;;23.10;65.30;;;;;;5092444;28;19966;-72
2023/10/07 12:10:50;;;;;;;;;;;23.10;63.40;;;;;;5093286;28;20368;-71
2023/10/07 12:13:15;;;;;;;;;;;23.10;63.20;;;;;;5093446;28;19908;-72
2023/10/07 12:15:44;;;;;;;;;;;23.20;62.10;;;;;;5093339;28;19949;-72
2023/10/07 12:18:12;;;;;;;;;;;23.20;62.40;;;;;;5093338;28;19966;-72
2023/10/07 12:20:38;;;;;;;;;;;23.20;62.00;;;;;;5093575;28;20053;-72
2023/10/07 12:23:04;;;;;;;;;;;23.20;60.00;;;;;;5092927;28;19949;-72
2023/10/07 12:25:30;;;;;;;;;;;23.30;60.60;;;;;;5093300;28;19911;-71
2023/10/07 12:27:56;;;;;;;;;;;23.30;60.70;;;;;;5090790;28;19908;-71
2023/10/07 12:30:22;;;;;;;;;;;23.30;60.90;;;;;;5090695;28;20335;-70
2023/10/07 12:32:48;;;;;;;;;;;23.40;61.10;;;;;;5091938;28;19926;-71
2023/10/07 12:35:14;;;;;;;;;;;23.40;59.70;;;;;;5093188;28;19904;-72
2023/10/07 12:37:41;;;;;;;;;;;23.40;59.60;;;;;;5092708;28;20465;-71
2023/10/07 12:40:11;;;;;;;;;;;23.40;62.60;;;;;;5088590;28;19947;-72
2023/10/07 12:42:39;;;;;;;;;;;23.50;60.40;;;;;;5090578;28;20339;-72
2023/10/07 12:45:05;;;;;;;;;;;23.50;60.20;;;;;;5091893;28;19911;-72
2023/10/07 12:47:31;;;;;;;;;;;23.50;61.30;;;;;;5091452;28;19921;-72
2023/10/07 12:49:56;;;;;;;;;;;23.50;60.90;;;;;;5093005;28;20025;-72
2023/10/07 12:52:26;;;;;;;;;;;23.50;58.60;;;;;;5093174;28;19936;-72
2023/10/07 12:54:56;;;;;;;;;;;23.50;59.10;;;;;;5093031;28;20252;-71
2023/10/07 12:57:21;;;;;;;;;;;23.50;60.00;;;;;;5093200;28;19908;-72
2023/10/07 12:59:52;;;;;;;;;;;23.60;59.60;;;;;;5092943;28;19919;-72
2023/10/07 13:02:17;;;;;;;;;;;23.60;59.60;;;;;;5092817;28;19980;-72
2023/10/07 13:04:44;;;;;;;;;;;23.60;59.50;;;;;;5092668;28;20002;-71
2023/10/07 13:07:10;;;;;;;;;;;23.60;60.00;;;;;;5094516;28;19904;-72
2023/10/07 13:09:40;;;;;;;;;;;23.70;61.40;;;;;;5096515;28;19911;-72
2023/10/07 13:12:12;;;;;;;;;;;23.70;58.40;;;;;;5096903;28;19957;-72
2023/10/07 13:14:40;;;;;;;;;;;23.70;57.90;;;;;;5096747;28;19943;-72
2023/10/07 13:17:06;;;;;;;;;;;23.70;58.30;;;;;;5096284;28;19904;-72
2023/10/07 13:19:36;;;;;;;;;;;23.70;57.70;;;;;;5096877;28;19918;-72
2023/10/07 13:22:05;;;;;;;;;;;23.70;57.00;;;;;;5096899;28;19910;-72
2023/10/07 13:24:31;;;;;;;;;;;23.70;58.00;;;;;;5096628;28;19926;-71
2023/10/07 13:26:56;;;;;;;;;;;23.70;56.00;;;;;;5096483;28;20395;-71
2023/10/07 13:29:23;;;;;;;;;;;23.70;55.90;;;;;;5095432;28;19946;-71
2023/10/07 13:31:48;;;;;;;;;;;23.70;54.90;;;;;;5096180;28;19912;-72
2023/10/07 13:34:16;;;;;;;;;;;23.70;54.10;;;;;;5096537;28;19904;-72
2023/10/07 13:36:43;;;;;;;;;;;23.70;54.90;;;;;;5096421;28;19943;-72
2023/10/07 13:39:18;;;;;;;;;;;23.70;55.80;;;;;;5096181;28;19912;-72
2023/10/07 13:41:44;;;;;;;;;;;23.70;56.30;;;;;;5095245;28;19904;-71
2023/10/07 13:44:14;;;;;;;;;;;23.70;56.70;;;;;;5096316;28;19904;-72
2023/10/07 13:46:40;;;;;;;;;;;23.70;56.10;;;;;;5096076;28;19908;-71
2023/10/07 13:49:08;;;;;;;;;;;23.70;55.80;;;;;;5096065;28;20383;-72
2023/10/07 13:51:56;;;;;;;;;;;23.70;56.00;;;;;;5096436;28;19908;-73
2023/10/07 13:57:02;;;;;;;;;;;23.70;57.10;;;;;;5096082;28;19904;-71
2023/10/07 13:59:28;;;;;;;;;;;23.70;56.30;;;;;;5096116;28;19912;-72
2023/10/07 14:01:55;;;;;;;;;;;23.70;56.50;;;;;;5095697;28;20276;-72
2023/10/07 14:04:25;;;;;;;;;;;23.70;57.50;;;;;;5096052;28;20395;-72
2023/10/07 14:06:54;;;;;;;;;;;23.70;57.60;;;;;;5096057;28;20413;-72
2023/10/07 14:09:24;;;;;;;;;;;23.70;57.20;;;;;;5095708;28;19961;-72
2023/10/07 14:11:50;;;;;;;;;;;23.70;58.60;;;;;;5094502;28;20299;-72
2023/10/07 14:14:16;;;;;;;;;;;23.70;58.90;;;;;;5095951;28;19904;-72
2023/10/07 14:16:42;;;;;;;;;;;23.70;59.90;;;;;;5095542;28;19907;-72
2023/10/07 14:19:08;;;;;;;;;;;23.70;59.70;;;;;;5095274;28;19912;-73
2023/10/07 14:21:34;;;;;;;;;;;23.70;60.90;;;;;;5095524;28;20391;-72
2023/10/07 14:24:03;;;;;;;;;;;23.70;61.10;;;;;;5094075;28;19965;-73
2023/10/07 14:26:32;;;;;;;;;;;23.70;60.70;;;;;;5095345;28;19904;-72
2023/10/07 14:29:02;;;;;;;;;;;23.70;60.70;;;;;;5095361;28;19908;-72
2023/10/07 14:31:28;;;;;;;;;;;23.70;61.00;;;;;;5095444;28;20355;-72
2023/10/07 14:33:54;;;;;;;;;;;23.60;62.00;;;;;;5095414;28;19911;-72
2023/10/07 14:36:21;;;;;;;;;;;23.70;62.30;;;;;;5095673;28;19915;-72
2023/10/07 14:38:48;;;;;;;;;;;23.70;63.20;;;;;;5094446;28;20014;-71
2023/10/07 14:41:14;;;;;;;;;;;23.70;65.10;;;;;;5095310;28;20378;-72
2023/10/07 14:43:40;;;;;;;;;;;23.70;65.00;;;;;;5095328;28;19907;-75
2023/10/07 14:46:13;;;;;;;;;;;23.60;65.20;;;;;;5095052;28;19904;-74
2023/10/07 14:48:39;;;;;;;;;;;23.60;65.60;;;;;;5095145;28;20006;-74
2023/10/07 14:51:05;;;;;;;;;;;23.60;65.60;;;;;;5093814;28;20287;-77